sensor_id;sensor_type;location;lat;lon;timestamp;temperature;humidity
14006;DHT22;7078;51.542;7.314;2022-09-17T00:00:16;10.80;99.90
14006;DHT22;7078;51.542;7.314;2022-09-17T00:02:42;10.80;99.90
14006;DHT22;7078;51.542;7.314;2022-09-17T00:05:10;10.90;99.90
14006;DHT22;7078;51.542;7.314;2022-09-17T00:07:36;10.90;99.90
14006;DHT22;7078;51.542;7.314;2022-09-17T00:10:02;10.90;99.90
14006;DHT22;7078;51.542;7.314;2022-09-17T00:12:27;10.90;99.90
14006;DHT22;7078;51.542;7.314;2022-09-17T00:14:53;10.80;99.90
14006;DHT22;7078;51.542;7.314;2022-09-17T00:17:18;10.80;99.90
14006;DHT22;7078;51.542;7.314;2022-09-17T00:19:44;10.80;99.90
14006;DHT22;7078;51.542;7.314;2022-09-17T00:22:09;10.80;99.90
14006;DHT22;7078;51.542;7.314;2022-09-17T00:24:35;10.80;99.90
14006;DHT22;7078;51.542;7.314;2022-09-17T00:27:00;10.80;99.90
14006;DHT22;7078;51.542;7.314;2022-09-17T00:29:26;10.80;99.90
14006;DHT22;7078;51.542;7.314;2022-09-17T00:31:51;10.80;99.90
14006;DHT22;7078;51.542;7.314;2022-09-17T00:34:17;10.90;99.90
14006;DHT22;7078;51.542;7.314;2022-09-17T00:36:42;10.70;99.90
14006;DHT22;7078;51.542;7.314;2022-09-17T00:39:10;10.70;99.90
14006;DHT22;7078;51.542;7.314;2022-09-17T00:41:37;10.60;99.90
14006;DHT22;7078;51.542;7.314;2022-09-17T00:49:38;10.60;99.90
14006;DHT22;7078;51.542;7.314;2022-09-17T00:52:06;10.50;99.90
14006;DHT22;7078;51.542;7.314;2022-09-17T00:54:34;10.50;99.90
14006;DHT22;7078;51.542;7.314;2022-09-17T00:57:01;10.50;99.90
14006;DHT22;7078;51.542;7.314;2022-09-17T00:59:27;10.50;99.90
14006;DHT22;7078;51.542;7.314;2022-09-17T01:01:53;10.50;99.90
14006;DHT22;7078;51.542;7.314;2022-09-17T01:04:21;10.50;99.90
14006;DHT22;7078;51.542;7.314;2022-09-17T01:10:00;10.40;99.90
14006;DHT22;7078;51.542;7.314;2022-09-17T01:12:53;10.40;99.90
14006;DHT22;7078;51.542;7.314;2022-09-17T01:15:59;10.40;99.90
14006;DHT22;7078;51.542;7.314;2022-09-17T01:21:29;10.30;99.90
14006;DHT22;7078;51.542;7.314;2022-09-17T01:38:33;10.10;99.90
14006;DHT22;7078;51.542;7.314;2022-09-17T01:41:52;10.10;99.90
14006;DHT22;7078;51.542;7.314;2022-09-17T01:44:49;10.10;99.90
14006;DHT22;7078;51.542;7.314;2022-09-17T01:47:00;10.10;99.90
14006;DHT22;7078;51.542;7.314;2022-09-17T01:49:30;10.00;99.90
14006;DHT22;7078;51.542;7.314;2022-09-17T01:51:57;10.00;99.90
14006;DHT22;7078;51.542;7.314;2022-09-17T02:02:02;10.00;99.90
14006;DHT22;7078;51.542;7.314;2022-09-17T02:04:36;10.10;99.90
14006;DHT22;7078;51.542;7.314;2022-09-17T02:07:06;10.10;99.90
14006;DHT22;7078;51.542;7.314;2022-09-17T02:09:42;10.10;99.90
14006;DHT22;7078;51.542;7.314;2022-09-17T02:12:14;10.10;99.90
14006;DHT22;7078;51.542;7.314;2022-09-17T02:14:47;10.10;99.90
14006;DHT22;7078;51.542;7.314;2022-09-17T02:17:36;10.10;99.90
14006;DHT22;7078;51.542;7.314;2022-09-17T02:20:04;10.10;99.90
14006;DHT22;7078;51.542;7.314;2022-09-17T02:22:42;10.10;99.90
14006;DHT22;7078;51.542;7.314;2022-09-17T02:25:27;10.10;99.90
14006;DHT22;7078;51.542;7.314;2022-09-17T02:28:10;10.10;99.90
14006;DHT22;7078;51.542;7.314;2022-09-17T02:30:38;10.20;99.90
14006;DHT22;7078;51.542;7.314;2022-09-17T02:33:07;10.20;99.90
14006;DHT22;7078;51.542;7.314;2022-09-17T02:35:34;10.20;99.90
14006;DHT22;7078;51.542;7.314;2022-09-17T02:38:02;10.20;99.90
14006;DHT22;7078;51.542;7.314;2022-09-17T02:40:32;10.20;99.90
14006;DHT22;7078;51.542;7.314;2022-09-17T02:43:31;10.20;99.90
14006;DHT22;7078;51.542;7.314;2022-09-17T02:52:05;10.20;99.90
14006;DHT22;7078;51.542;7.314;2022-09-17T02:54:41;10.30;99.90
14006;DHT22;7078;51.542;7.314;2022-09-17T02:57:18;10.30;99.90
14006;DHT22;7078;51.542;7.314;2022-09-17T02:59:47;10.40;99.90
14006;DHT22;7078;51.542;7.314;2022-09-17T03:02:25;10.40;99.90
14006;DHT22;7078;51.542;7.314;2022-09-17T03:04:53;10.40;99.90
14006;DHT22;7078;51.542;7.314;2022-09-17T03:07:21;10.40;99.90
14006;DHT22;7078;51.542;7.314;2022-09-17T03:09:47;10.40;99.90
14006;DHT22;7078;51.542;7.314;2022-09-17T03:12:13;10.40;99.90
14006;DHT22;7078;51.542;7.314;2022-09-17T03:14:39;10.40;99.90
14006;DHT22;7078;51.542;7.314;2022-09-17T03:17:05;10.40;99.90
14006;DHT22;7078;51.542;7.314;2022-09-17T03:19:30;10.40;99.90
14006;DHT22;7078;51.542;7.314;2022-09-17T03:21:56;10.40;99.90
14006;DHT22;7078;51.542;7.314;2022-09-17T03:24:21;10.40;99.90
14006;DHT22;7078;51.542;7.314;2022-09-17T03:26:47;10.40;99.90
14006;DHT22;7078;51.542;7.314;2022-09-17T03:29:14;10.30;99.90
14006;DHT22;7078;51.542;7.314;2022-09-17T03:31:39;10.30;99.90
14006;DHT22;7078;51.542;7.314;2022-09-17T03:34:05;10.40;99.90
14006;DHT22;7078;51.542;7.314;2022-09-17T03:36:31;10.40;99.90
14006;DHT22;7078;51.542;7.314;2022-09-17T03:38:57;10.40;99.90
14006;DHT22;7078;51.542;7.314;2022-09-17T03:41:23;10.30;99.90
14006;DHT22;7078;51.542;7.314;2022-09-17T03:43:50;10.30;99.90
14006;DHT22;7078;51.542;7.314;2022-09-17T03:46:16;10.30;99.90
14006;DHT22;7078;51.542;7.314;2022-09-17T03:48:42;10.30;99.90
14006;DHT22;7078;51.542;7.314;2022-09-17T03:51:07;10.30;99.90
14006;DHT22;7078;51.542;7.314;2022-09-17T03:53:33;10.30;99.90
14006;DHT22;7078;51.542;7.314;2022-09-17T03:56:00;10.20;99.90
14006;DHT22;7078;51.542;7.314;2022-09-17T03:58:27;10.30;99.90
14006;DHT22;7078;51.542;7.314;2022-09-17T04:00:53;10.20;99.90
14006;DHT22;7078;51.542;7.314;2022-09-17T04:03:25;10.20;99.90
14006;DHT22;7078;51.542;7.314;2022-09-17T04:05:50;10.20;99.90
14006;DHT22;7078;51.542;7.314;2022-09-17T04:08:16;10.20;99.90
14006;DHT22;7078;51.542;7.314;2022-09-17T04:10:42;10.10;99.90
14006;DHT22;7078;51.542;7.314;2022-09-17T04:13:09;10.10;99.90
14006;DHT22;7078;51.542;7.314;2022-09-17T04:15:34;10.10;99.90
14006;DHT22;7078;51.542;7.314;2022-09-17T04:18:00;10.00;99.90
14006;DHT22;7078;51.542;7.314;2022-09-17T04:20:25;10.10;99.90
14006;DHT22;7078;51.542;7.314;2022-09-17T04:22:51;10.00;99.90
14006;DHT22;7078;51.542;7.314;2022-09-17T04:25:17;10.10;99.90
14006;DHT22;7078;51.542;7.314;2022-09-17T04:27:44;10.00;99.90
14006;DHT22;7078;51.542;7.314;2022-09-17T04:30:10;9.90;99.90
14006;DHT22;7078;51.542;7.314;2022-09-17T04:32:36;10.00;99.90
14006;DHT22;7078;51.542;7.314;2022-09-17T04:35:02;9.90;99.90
14006;DHT22;7078;51.542;7.314;2022-09-17T04:37:28;9.90;99.90
14006;DHT22;7078;51.542;7.314;2022-09-17T04:39:53;9.90;99.90
14006;DHT22;7078;51.542;7.314;2022-09-17T04:42:19;10.00;99.90
14006;DHT22;7078;51.542;7.314;2022-09-17T04:44:44;9.90;99.90
14006;DHT22;7078;51.542;7.314;2022-09-17T04:47:10;10.00;99.90
14006;DHT22;7078;51.542;7.314;2022-09-17T04:49:35;10.00;99.90
14006;DHT22;7078;51.542;7.314;2022-09-17T04:52:02;10.00;99.90
14006;DHT22;7078;51.542;7.314;2022-09-17T04:54:28;10.00;99.90
14006;DHT22;7078;51.542;7.314;2022-09-17T04:56:53;10.00;99.90
14006;DHT22;7078;51.542;7.314;2022-09-17T04:59:19;10.00;99.90
14006;DHT22;7078;51.542;7.314;2022-09-17T05:01:45;10.00;99.90
14006;DHT22;7078;51.542;7.314;2022-09-17T05:04:10;10.00;99.90
14006;DHT22;7078;51.542;7.314;2022-09-17T05:06:36;10.10;99.90
14006;DHT22;7078;51.542;7.314;2022-09-17T05:09:01;10.10;99.90
14006;DHT22;7078;51.542;7.314;2022-09-17T05:11:27;10.20;99.90
14006;DHT22;7078;51.542;7.314;2022-09-17T05:13:53;10.20;99.90
14006;DHT22;7078;51.542;7.314;2022-09-17T05:16:19;10.20;99.90
14006;DHT22;7078;51.542;7.314;2022-09-17T05:18:45;10.30;99.90
14006;DHT22;7078;51.542;7.314;2022-09-17T05:21:10;10.30;99.90
14006;DHT22;7078;51.542;7.314;2022-09-17T05:23:36;10.30;99.90
14006;DHT22;7078;51.542;7.314;2022-09-17T05:26:02;10.30;99.90
14006;DHT22;7078;51.542;7.314;2022-09-17T05:28:28;10.30;99.90
14006;DHT22;7078;51.542;7.314;2022-09-17T05:30:54;10.30;99.90
14006;DHT22;7078;51.542;7.314;2022-09-17T05:33:22;10.30;99.90
14006;DHT22;7078;51.542;7.314;2022-09-17T05:35:48;10.30;99.90
14006;DHT22;7078;51.542;7.314;2022-09-17T05:38:13;10.30;99.90
14006;DHT22;7078;51.542;7.314;2022-09-17T05:40:39;10.30;99.90
14006;DHT22;7078;51.542;7.314;2022-09-17T05:43:05;10.40;99.90
14006;DHT22;7078;51.542;7.314;2022-09-17T05:45:35;10.40;99.90
14006;DHT22;7078;51.542;7.314;2022-09-17T05:48:01;10.50;99.90
14006;DHT22;7078;51.542;7.314;2022-09-17T05:50:28;10.60;99.90
14006;DHT22;7078;51.542;7.314;2022-09-17T05:52:54;10.60;99.90
14006;DHT22;7078;51.542;7.314;2022-09-17T05:55:21;10.70;99.90
14006;DHT22;7078;51.542;7.314;2022-09-17T06:01:09;10.90;99.90
14006;DHT22;7078;51.542;7.314;2022-09-17T06:03:40;10.90;99.90
14006;DHT22;7078;51.542;7.314;2022-09-17T06:06:06;11.00;99.90
14006;DHT22;7078;51.542;7.314;2022-09-17T06:08:33;11.00;99.90
14006;DHT22;7078;51.542;7.314;2022-09-17T06:11:04;11.10;99.90
14006;DHT22;7078;51.542;7.314;2022-09-17T06:13:31;11.10;99.90
14006;DHT22;7078;51.542;7.314;2022-09-17T06:15:56;11.10;99.90
14006;DHT22;7078;51.542;7.314;2022-09-17T06:18:23;11.10;99.90
14006;DHT22;7078;51.542;7.314;2022-09-17T06:20:52;11.10;99.90
14006;DHT22;7078;51.542;7.314;2022-09-17T06:23:18;11.20;99.90
14006;DHT22;7078;51.542;7.314;2022-09-17T06:25:52;11.20;99.90
14006;DHT22;7078;51.542;7.314;2022-09-17T06:28:18;11.20;99.90
14006;DHT22;7078;51.542;7.314;2022-09-17T06:30:44;11.30;99.90
14006;DHT22;7078;51.542;7.314;2022-09-17T06:33:09;11.30;99.90
14006;DHT22;7078;51.542;7.314;2022-09-17T06:35:35;11.30;99.90
14006;DHT22;7078;51.542;7.314;2022-09-17T06:38:03;11.30;99.90
14006;DHT22;7078;51.542;7.314;2022-09-17T06:40:29;11.30;99.90
14006;DHT22;7078;51.542;7.314;2022-09-17T06:42:58;11.30;99.90
14006;DHT22;7078;51.542;7.314;2022-09-17T06:45:25;11.20;99.90
14006;DHT22;7078;51.542;7.314;2022-09-17T06:47:50;11.20;99.90
14006;DHT22;7078;51.542;7.314;2022-09-17T06:50:16;11.10;99.90
14006;DHT22;7078;51.542;7.314;2022-09-17T06:52:52;11.20;99.90
14006;DHT22;7078;51.542;7.314;2022-09-17T06:55:19;11.20;99.90
14006;DHT22;7078;51.542;7.314;2022-09-17T06:57:45;11.30;99.90
14006;DHT22;7078;51.542;7.314;2022-09-17T07:00:12;11.30;99.90
14006;DHT22;7078;51.542;7.314;2022-09-17T07:02:38;11.40;99.90
14006;DHT22;7078;51.542;7.314;2022-09-17T07:05:04;11.50;99.90
14006;DHT22;7078;51.542;7.314;2022-09-17T07:07:30;11.50;99.90
14006;DHT22;7078;51.542;7.314;2022-09-17T07:09:55;11.50;99.90
14006;DHT22;7078;51.542;7.314;2022-09-17T07:12:21;11.50;99.90
14006;DHT22;7078;51.542;7.314;2022-09-17T07:14:46;11.60;99.90
14006;DHT22;7078;51.542;7.314;2022-09-17T07:17:13;11.50;99.90
14006;DHT22;7078;51.542;7.314;2022-09-17T07:19:39;11.60;99.90
14006;DHT22;7078;51.542;7.314;2022-09-17T07:22:04;11.60;99.90
14006;DHT22;7078;51.542;7.314;2022-09-17T07:24:30;11.60;99.90
14006;DHT22;7078;51.542;7.314;2022-09-17T07:26:56;11.60;99.90
14006;DHT22;7078;51.542;7.314;2022-09-17T07:29:21;11.50;99.90
14006;DHT22;7078;51.542;7.314;2022-09-17T07:31:50;11.50;99.90
14006;DHT22;7078;51.542;7.314;2022-09-17T07:34:16;11.60;99.90
14006;DHT22;7078;51.542;7.314;2022-09-17T07:36:42;11.60;99.90
14006;DHT22;7078;51.542;7.314;2022-09-17T07:39:08;11.70;99.90
14006;DHT22;7078;51.542;7.314;2022-09-17T07:41:35;11.70;99.90
14006;DHT22;7078;51.542;7.314;2022-09-17T07:44:00;11.70;99.90
14006;DHT22;7078;51.542;7.314;2022-09-17T07:46:27;11.70;99.90
14006;DHT22;7078;51.542;7.314;2022-09-17T07:48:52;11.80;99.90
14006;DHT22;7078;51.542;7.314;2022-09-17T07:51:22;12.00;99.90
14006;DHT22;7078;51.542;7.314;2022-09-17T07:53:52;12.20;99.90
14006;DHT22;7078;51.542;7.314;2022-09-17T07:56:18;12.40;99.90
14006;DHT22;7078;51.542;7.314;2022-09-17T07:58:43;12.40;99.90
14006;DHT22;7078;51.542;7.314;2022-09-17T08:01:10;12.50;99.90
14006;DHT22;7078;51.542;7.314;2022-09-17T08:03:37;12.60;99.90
14006;DHT22;7078;51.542;7.314;2022-09-17T08:06:05;12.70;99.90
14006;DHT22;7078;51.542;7.314;2022-09-17T08:08:32;12.80;99.90
14006;DHT22;7078;51.542;7.314;2022-09-17T08:11:27;12.90;99.90
14006;DHT22;7078;51.542;7.314;2022-09-17T08:13:53;13.00;99.90
14006;DHT22;7078;51.542;7.314;2022-09-17T08:16:20;13.00;99.90
14006;DHT22;7078;51.542;7.314;2022-09-17T08:18:46;13.20;99.90
14006;DHT22;7078;51.542;7.314;2022-09-17T08:21:15;13.30;99.90
14006;DHT22;7078;51.542;7.314;2022-09-17T08:23:41;13.30;99.90
14006;DHT22;7078;51.542;7.314;2022-09-17T08:26:13;13.30;99.90
14006;DHT22;7078;51.542;7.314;2022-09-17T08:28:39;13.40;99.90
14006;DHT22;7078;51.542;7.314;2022-09-17T08:31:06;13.40;99.90
14006;DHT22;7078;51.542;7.314;2022-09-17T08:33:36;13.50;99.90
14006;DHT22;7078;51.542;7.314;2022-09-17T08:36:04;13.50;99.90
14006;DHT22;7078;51.542;7.314;2022-09-17T08:38:31;13.60;99.90
14006;DHT22;7078;51.542;7.314;2022-09-17T08:46:51;13.40;99.90
14006;DHT22;7078;51.542;7.314;2022-09-17T08:49:34;13.60;99.90
14006;DHT22;7078;51.542;7.314;2022-09-17T08:57:15;13.70;99.90
14006;DHT22;7078;51.542;7.314;2022-09-17T09:00:03;13.80;99.90
14006;DHT22;7078;51.542;7.314;2022-09-17T09:02:47;13.70;99.90
14006;DHT22;7078;51.542;7.314;2022-09-17T09:05:15;13.70;99.90
14006;DHT22;7078;51.542;7.314;2022-09-17T09:07:50;13.80;99.90
14006;DHT22;7078;51.542;7.314;2022-09-17T09:10:26;14.00;99.90
14006;DHT22;7078;51.542;7.314;2022-09-17T09:12:54;13.90;99.90
14006;DHT22;7078;51.542;7.314;2022-09-17T09:15:45;14.10;99.90
14006;DHT22;7078;51.542;7.314;2022-09-17T09:21:43;14.20;99.90
14006;DHT22;7078;51.542;7.314;2022-09-17T09:24:20;14.30;99.90
14006;DHT22;7078;51.542;7.314;2022-09-17T09:27:32;14.30;99.90
14006;DHT22;7078;51.542;7.314;2022-09-17T09:30:01;14.50;99.90
14006;DHT22;7078;51.542;7.314;2022-09-17T09:32:56;14.60;99.90
14006;DHT22;7078;51.542;7.314;2022-09-17T09:35:32;14.60;99.90
14006;DHT22;7078;51.542;7.314;2022-09-17T09:38:21;14.70;99.90
14006;DHT22;7078;51.542;7.314;2022-09-17T09:40:57;14.80;99.90
14006;DHT22;7078;51.542;7.314;2022-09-17T09:57:21;15.40;99.90
14006;DHT22;7078;51.542;7.314;2022-09-17T09:59:48;15.40;99.90
14006;DHT22;7078;51.542;7.314;2022-09-17T10:02:14;15.50;99.90
14006;DHT22;7078;51.542;7.314;2022-09-17T10:04:39;15.30;99.90
14006;DHT22;7078;51.542;7.314;2022-09-17T10:07:07;15.30;99.70
14006;DHT22;7078;51.542;7.314;2022-09-17T10:09:38;15.30;98.90
14006;DHT22;7078;51.542;7.314;2022-09-17T10:14:39;15.30;99.90
14006;DHT22;7078;51.542;7.314;2022-09-17T10:17:23;15.30;98.70
14006;DHT22;7078;51.542;7.314;2022-09-17T10:22:34;15.40;99.90
14006;DHT22;7078;51.542;7.314;2022-09-17T10:25:02;15.40;99.00
14006;DHT22;7078;51.542;7.314;2022-09-17T10:27:30;15.40;98.50
14006;DHT22;7078;51.542;7.314;2022-09-17T10:30:05;15.20;97.50
14006;DHT22;7078;51.542;7.314;2022-09-17T10:32:38;15.10;97.30
14006;DHT22;7078;51.542;7.314;2022-09-17T10:37:44;15.50;97.00
14006;DHT22;7078;51.542;7.314;2022-09-17T10:40:31;15.70;96.80
14006;DHT22;7078;51.542;7.314;2022-09-17T10:45:43;16.10;95.60
14006;DHT22;7078;51.542;7.314;2022-09-17T10:48:18;16.20;96.20
14006;DHT22;7078;51.542;7.314;2022-09-17T10:50:52;16.10;96.40
14006;DHT22;7078;51.542;7.314;2022-09-17T10:53:19;16.10;97.70
14006;DHT22;7078;51.542;7.314;2022-09-17T10:55:49;16.00;96.30
14006;DHT22;7078;51.542;7.314;2022-09-17T11:10:22;15.70;95.90
14006;DHT22;7078;51.542;7.314;2022-09-17T11:15:54;15.70;94.80
14006;DHT22;7078;51.542;7.314;2022-09-17T11:29:49;15.30;99.90
14006;DHT22;7078;51.542;7.314;2022-09-17T11:32:53;15.10;99.90
14006;DHT22;7078;51.542;7.314;2022-09-17T11:35:44;15.00;99.90
14006;DHT22;7078;51.542;7.314;2022-09-17T11:38:24;15.00;99.90
14006;DHT22;7078;51.542;7.314;2022-09-17T11:41:03;15.10;99.90
14006;DHT22;7078;51.542;7.314;2022-09-17T11:43:33;15.10;99.90
14006;DHT22;7078;51.542;7.314;2022-09-17T11:46:01;15.10;99.90
14006;DHT22;7078;51.542;7.314;2022-09-17T11:48:35;15.40;99.90
14006;DHT22;7078;51.542;7.314;2022-09-17T11:53:43;15.60;99.90
14006;DHT22;7078;51.542;7.314;2022-09-17T11:59:01;15.70;99.90
14006;DHT22;7078;51.542;7.314;2022-09-17T12:09:40;15.40;99.90
14006;DHT22;7078;51.542;7.314;2022-09-17T12:12:17;15.10;99.90
14006;DHT22;7078;51.542;7.314;2022-09-17T12:14:50;14.70;99.90
14006;DHT22;7078;51.542;7.314;2022-09-17T12:17:27;14.40;99.90
14006;DHT22;7078;51.542;7.314;2022-09-17T12:20:02;14.10;99.90
14006;DHT22;7078;51.542;7.314;2022-09-17T12:22:33;13.90;99.90
14006;DHT22;7078;51.542;7.314;2022-09-17T12:25:00;13.60;99.90
14006;DHT22;7078;51.542;7.314;2022-09-17T12:27:49;13.50;99.90
14006;DHT22;7078;51.542;7.314;2022-09-17T12:30:20;13.40;99.90
14006;DHT22;7078;51.542;7.314;2022-09-17T12:33:24;13.30;99.90
14006;DHT22;7078;51.542;7.314;2022-09-17T12:36:18;13.40;99.90
14006;DHT22;7078;51.542;7.314;2022-09-17T12:38:57;13.30;99.90
14006;DHT22;7078;51.542;7.314;2022-09-17T12:44:42;13.30;99.90
14006;DHT22;7078;51.542;7.314;2022-09-17T12:47:40;13.10;99.90
14006;DHT22;7078;51.542;7.314;2022-09-17T12:58:21;13.40;99.90
14006;DHT22;7078;51.542;7.314;2022-09-17T13:01:57;13.80;99.90
14006;DHT22;7078;51.542;7.314;2022-09-17T13:04:09;14.60;99.90
14006;DHT22;7078;51.542;7.314;2022-09-17T13:09:52;14.80;99.90
14006;DHT22;7078;51.542;7.314;2022-09-17T13:12:41;14.50;99.90
14006;DHT22;7078;51.542;7.314;2022-09-17T13:17:59;13.70;99.90
14006;DHT22;7078;51.542;7.314;2022-09-17T13:20:40;13.50;99.90
14006;DHT22;7078;51.542;7.314;2022-09-17T13:23:08;13.60;99.90
14006;DHT22;7078;51.542;7.314;2022-09-17T13:25:48;13.60;99.90
14006;DHT22;7078;51.542;7.314;2022-09-17T13:28:16;13.80;99.90
14006;DHT22;7078;51.542;7.314;2022-09-17T13:30:58;14.10;99.90
14006;DHT22;7078;51.542;7.314;2022-09-17T13:42:02;14.20;99.90
14006;DHT22;7078;51.542;7.314;2022-09-17T13:44:29;14.00;99.90
14006;DHT22;7078;51.542;7.314;2022-09-17T13:47:09;13.90;99.90
14006;DHT22;7078;51.542;7.314;2022-09-17T13:49:43;13.70;99.90
14006;DHT22;7078;51.542;7.314;2022-09-17T13:52:09;13.80;99.90
14006;DHT22;7078;51.542;7.314;2022-09-17T13:54:36;13.90;99.90
14006;DHT22;7078;51.542;7.314;2022-09-17T13:57:08;14.30;99.90
14006;DHT22;7078;51.542;7.314;2022-09-17T13:59:36;14.70;99.90
14006;DHT22;7078;51.542;7.314;2022-09-17T14:09:57;14.90;99.90
14006;DHT22;7078;51.542;7.314;2022-09-17T14:15:32;15.10;99.90
14006;DHT22;7078;51.542;7.314;2022-09-17T14:17:58;15.30;99.90
14006;DHT22;7078;51.542;7.314;2022-09-17T14:20:24;15.10;99.90
14006;DHT22;7078;51.542;7.314;2022-09-17T14:22:58;14.70;99.90
14006;DHT22;7078;51.542;7.314;2022-09-17T14:25:36;14.40;99.90
14006;DHT22;7078;51.542;7.314;2022-09-17T14:28:38;14.20;99.90
14006;DHT22;7078;51.542;7.314;2022-09-17T14:31:21;14.20;99.90
14006;DHT22;7078;51.542;7.314;2022-09-17T14:33:49;14.20;99.90
14006;DHT22;7078;51.542;7.314;2022-09-17T14:36:20;14.10;99.90
14006;DHT22;7078;51.542;7.314;2022-09-17T14:38:52;14.00;99.90
14006;DHT22;7078;51.542;7.314;2022-09-17T14:41:28;14.10;99.90
14006;DHT22;7078;51.542;7.314;2022-09-17T14:44:01;14.20;99.90
14006;DHT22;7078;51.542;7.314;2022-09-17T14:46:36;14.40;99.90
14006;DHT22;7078;51.542;7.314;2022-09-17T14:51:52;14.20;99.90
14006;DHT22;7078;51.542;7.314;2022-09-17T14:54:26;14.10;99.90
14006;DHT22;7078;51.542;7.314;2022-09-17T14:57:01;14.40;99.90
14006;DHT22;7078;51.542;7.314;2022-09-17T14:59:59;14.50;99.90
14006;DHT22;7078;51.542;7.314;2022-09-17T15:02:31;14.70;99.90
14006;DHT22;7078;51.542;7.314;2022-09-17T15:04:58;14.70;99.90
14006;DHT22;7078;51.542;7.314;2022-09-17T15:07:25;14.70;99.90
14006;DHT22;7078;51.542;7.314;2022-09-17T15:09:51;14.70;99.90
14006;DHT22;7078;51.542;7.314;2022-09-17T15:12:23;14.80;99.90
14006;DHT22;7078;51.542;7.314;2022-09-17T15:14:51;14.90;99.90
14006;DHT22;7078;51.542;7.314;2022-09-17T15:17:18;14.80;99.90
14006;DHT22;7078;51.542;7.314;2022-09-17T15:19:49;14.90;99.90
14006;DHT22;7078;51.542;7.314;2022-09-17T15:27:33;15.10;99.90
14006;DHT22;7078;51.542;7.314;2022-09-17T15:32:47;15.20;99.90
14006;DHT22;7078;51.542;7.314;2022-09-17T15:35:18;15.30;99.90
14006;DHT22;7078;51.542;7.314;2022-09-17T15:37:47;15.30;99.90
14006;DHT22;7078;51.542;7.314;2022-09-17T15:40:36;15.10;99.90
14006;DHT22;7078;51.542;7.314;2022-09-17T15:45:47;14.60;99.90
14006;DHT22;7078;51.542;7.314;2022-09-17T15:48:36;14.50;99.90
14006;DHT22;7078;51.542;7.314;2022-09-17T15:51:05;14.40;99.90
14006;DHT22;7078;51.542;7.314;2022-09-17T15:53:37;14.20;99.90
14006;DHT22;7078;51.542;7.314;2022-09-17T15:56:08;14.10;99.90
14006;DHT22;7078;51.542;7.314;2022-09-17T16:11:12;14.70;99.90
14006;DHT22;7078;51.542;7.314;2022-09-17T16:13:37;14.70;99.90
14006;DHT22;7078;51.542;7.314;2022-09-17T16:16:03;15.00;99.90
14006;DHT22;7078;51.542;7.314;2022-09-17T16:18:29;14.90;99.90
14006;DHT22;7078;51.542;7.314;2022-09-17T16:20:54;14.90;99.90
14006;DHT22;7078;51.542;7.314;2022-09-17T16:23:20;14.70;99.90
14006;DHT22;7078;51.542;7.314;2022-09-17T16:25:45;14.60;99.90
14006;DHT22;7078;51.542;7.314;2022-09-17T16:28:17;14.30;99.90
14006;DHT22;7078;51.542;7.314;2022-09-17T16:30:46;14.00;99.90
14006;DHT22;7078;51.542;7.314;2022-09-17T16:33:14;14.20;99.90
14006;DHT22;7078;51.542;7.314;2022-09-17T16:35:40;14.20;99.90
14006;DHT22;7078;51.542;7.314;2022-09-17T16:38:06;14.10;99.90
14006;DHT22;7078;51.542;7.314;2022-09-17T16:40:33;13.80;99.90
14006;DHT22;7078;51.542;7.314;2022-09-17T16:43:00;13.70;99.90
14006;DHT22;7078;51.542;7.314;2022-09-17T16:45:27;13.50;99.90
14006;DHT22;7078;51.542;7.314;2022-09-17T16:47:52;13.30;99.90
14006;DHT22;7078;51.542;7.314;2022-09-17T16:50:18;13.20;99.90
14006;DHT22;7078;51.542;7.314;2022-09-17T16:52:44;13.20;99.90
14006;DHT22;7078;51.542;7.314;2022-09-17T16:55:12;13.10;99.90
14006;DHT22;7078;51.542;7.314;2022-09-17T16:57:38;12.90;99.90
14006;DHT22;7078;51.542;7.314;2022-09-17T17:00:05;12.90;99.90
14006;DHT22;7078;51.542;7.314;2022-09-17T17:02:31;12.80;99.90
14006;DHT22;7078;51.542;7.314;2022-09-17T17:04:58;12.80;99.90
14006;DHT22;7078;51.542;7.314;2022-09-17T17:07:24;12.70;99.90
14006;DHT22;7078;51.542;7.314;2022-09-17T17:09:50;12.70;99.90
14006;DHT22;7078;51.542;7.314;2022-09-17T17:12:15;12.60;99.90
14006;DHT22;7078;51.542;7.314;2022-09-17T17:14:41;12.50;99.90
14006;DHT22;7078;51.542;7.314;2022-09-17T17:17:06;12.50;99.90
14006;DHT22;7078;51.542;7.314;2022-09-17T17:19:32;12.40;99.90
14006;DHT22;7078;51.542;7.314;2022-09-17T17:21:59;12.40;99.90
14006;DHT22;7078;51.542;7.314;2022-09-17T17:24:24;12.30;99.90
14006;DHT22;7078;51.542;7.314;2022-09-17T17:26:50;12.30;99.90
14006;DHT22;7078;51.542;7.314;2022-09-17T17:29:15;12.30;99.90
14006;DHT22;7078;51.542;7.314;2022-09-17T17:31:41;12.30;99.90
14006;DHT22;7078;51.542;7.314;2022-09-17T17:34:06;12.20;99.90
14006;DHT22;7078;51.542;7.314;2022-09-17T17:36:32;12.20;99.90
14006;DHT22;7078;51.542;7.314;2022-09-17T17:38:59;12.20;99.90
14006;DHT22;7078;51.542;7.314;2022-09-17T17:41:25;12.20;99.90
14006;DHT22;7078;51.542;7.314;2022-09-17T17:43:53;12.10;99.90
14006;DHT22;7078;51.542;7.314;2022-09-17T17:46:18;12.00;99.90
14006;DHT22;7078;51.542;7.314;2022-09-17T17:48:44;12.00;99.90
14006;DHT22;7078;51.542;7.314;2022-09-17T17:51:10;12.00;99.90
14006;DHT22;7078;51.542;7.314;2022-09-17T17:53:36;11.90;99.90
14006;DHT22;7078;51.542;7.314;2022-09-17T17:56:06;11.90;99.90
14006;DHT22;7078;51.542;7.314;2022-09-17T17:58:33;11.80;99.90
14006;DHT22;7078;51.542;7.314;2022-09-17T18:00:59;11.80;99.90
14006;DHT22;7078;51.542;7.314;2022-09-17T18:03:25;11.80;99.90
14006;DHT22;7078;51.542;7.314;2022-09-17T18:05:52;11.70;99.90
14006;DHT22;7078;51.542;7.314;2022-09-17T18:08:18;11.70;99.90
14006;DHT22;7078;51.542;7.314;2022-09-17T18:10:53;11.70;99.90
14006;DHT22;7078;51.542;7.314;2022-09-17T18:13:20;11.70;99.90
14006;DHT22;7078;51.542;7.314;2022-09-17T18:15:53;11.70;99.90
14006;DHT22;7078;51.542;7.314;2022-09-17T18:18:20;11.70;99.90
14006;DHT22;7078;51.542;7.314;2022-09-17T18:20:46;11.70;99.90
14006;DHT22;7078;51.542;7.314;2022-09-17T18:23:11;11.60;99.90
14006;DHT22;7078;51.542;7.314;2022-09-17T18:25:37;11.70;99.90
14006;DHT22;7078;51.542;7.314;2022-09-17T18:28:02;11.70;99.90
14006;DHT22;7078;51.542;7.314;2022-09-17T18:30:28;11.60;99.90
14006;DHT22;7078;51.542;7.314;2022-09-17T18:32:53;11.60;99.90
14006;DHT22;7078;51.542;7.314;2022-09-17T18:35:19;11.70;99.90
14006;DHT22;7078;51.542;7.314;2022-09-17T18:37:45;11.70;99.90
14006;DHT22;7078;51.542;7.314;2022-09-17T18:40:11;11.60;99.90
14006;DHT22;7078;51.542;7.314;2022-09-17T18:42:36;11.70;99.90
14006;DHT22;7078;51.542;7.314;2022-09-17T18:45:02;11.60;99.90
14006;DHT22;7078;51.542;7.314;2022-09-17T18:47:27;11.70;99.90
14006;DHT22;7078;51.542;7.314;2022-09-17T18:49:53;11.60;99.90
14006;DHT22;7078;51.542;7.314;2022-09-17T18:52:19;11.70;99.90
14006;DHT22;7078;51.542;7.314;2022-09-17T18:54:44;11.70;99.90
14006;DHT22;7078;51.542;7.314;2022-09-17T18:57:11;11.70;99.90
14006;DHT22;7078;51.542;7.314;2022-09-17T18:59:37;11.70;99.90
14006;DHT22;7078;51.542;7.314;2022-09-17T19:02:03;11.80;99.90
14006;DHT22;7078;51.542;7.314;2022-09-17T19:04:28;11.70;99.90
14006;DHT22;7078;51.542;7.314;2022-09-17T19:06:54;11.70;99.90
14006;DHT22;7078;51.542;7.314;2022-09-17T19:09:20;11.70;99.90